Kezdőlap
METAR-TAF:

METAR-TAF

Repülőterek :

Antananarivo, Madagaszkár

földrajzi szélesség: 18-48S, földrajzi hosszúság: 047-29E, magasság: 1279 m

Jelenlegi meteorológiai megfigyelések

A jelentés 26 perccel ezelõtt készült, 18:30 UTC
Kelet-délkeleti szél 4 kt, keleti és dél-délkeleti között változik
Hőmérséklet 15°C
Páratartalom 88%
Légköri nyomás 1023 hPa
Látótávolság 10 km, vagy több
Kevés felhő 1700 lábon

METAR: FMMI 261830Z 12004KT 090V160 9999 FEW017 15/13 Q1023 NOSIG

Idő: 21:56 (18:56 UTC)

Előrejelzés

A jelentés 1 órával és 56 perccel ezelõtt készült, 17:00 UTC
Az előrejelzés 26-én 18 óra UTC és 27-én 24 óra UTC között érvényes
Délkeleti szél 8 kt
Látótávolság 10 km, vagy több
Szórványos felhőzet 1700 lábon
Szakadozott felhőzet 2000 lábon

TAF: FMMI 261700Z 2618/2724 14008KT 9999 SCT017 BKN020

Meteorológiai megfigyelések és előrejelzések több, mint 4000 repülőtéren (METAR és TAF jelentéseket).

A térképen piros és sárga pontok jelzik az elérhető meteorológiai állomásokat.

Mozgassa az egeret a pont fölött, hogy megjelenjen az állomás neve.

Azután kattintson az időjárási megfigyelések és előrejelzések megtekintéséhez.

A térkép megváltoztatása: kattintson a fekete keresztel jelölt zöld gombra ráközelítéshez, a vonallal jelölt zöld gombra távolításhoz, vagy a zöld nyilakra a szomszédos térképek eléréséhez.


METAR-TAF: